sensor_id;sensor_type;location;lat;lon;timestamp;temperature;humidity
59282;DHT22;45054;52.062;10.010;2023-10-31T00:00:49;12.20;99.90
59282;DHT22;45054;52.062;10.010;2023-10-31T00:03:14;12.20;99.90
59282;DHT22;45054;52.062;10.010;2023-10-31T00:05:40;12.20;99.90
59282;DHT22;45054;52.062;10.010;2023-10-31T00:08:05;12.20;99.90
59282;DHT22;45054;52.062;10.010;2023-10-31T00:10:31;12.30;99.90
59282;DHT22;45054;52.062;10.010;2023-10-31T00:12:56;12.20;99.90
59282;DHT22;45054;52.062;10.010;2023-10-31T00:15:22;12.20;99.90
59282;DHT22;45054;52.062;10.010;2023-10-31T00:17:48;12.20;99.90
59282;DHT22;45054;52.062;10.010;2023-10-31T00:20:14;12.20;99.90
59282;DHT22;45054;52.062;10.010;2023-10-31T00:22:39;12.20;99.90
59282;DHT22;45054;52.062;10.010;2023-10-31T00:25:05;12.20;99.90
59282;DHT22;45054;52.062;10.010;2023-10-31T00:27:31;12.30;99.90
59282;DHT22;45054;52.062;10.010;2023-10-31T00:29:56;12.30;99.90
59282;DHT22;45054;52.062;10.010;2023-10-31T00:32:21;12.30;99.90
59282;DHT22;45054;52.062;10.010;2023-10-31T00:34:48;12.30;99.90
59282;DHT22;45054;52.062;10.010;2023-10-31T00:37:14;12.30;99.90
59282;DHT22;45054;52.062;10.010;2023-10-31T00:39:39;12.30;99.90
59282;DHT22;45054;52.062;10.010;2023-10-31T00:42:05;12.30;99.90
59282;DHT22;45054;52.062;10.010;2023-10-31T00:44:30;12.30;99.90
59282;DHT22;45054;52.062;10.010;2023-10-31T00:46:56;12.30;99.90
59282;DHT22;45054;52.062;10.010;2023-10-31T00:49:21;12.30;99.90
59282;DHT22;45054;52.062;10.010;2023-10-31T00:51:48;12.40;99.90
59282;DHT22;45054;52.062;10.010;2023-10-31T00:54:14;12.40;99.90
59282;DHT22;45054;52.062;10.010;2023-10-31T00:56:39;12.40;99.90
59282;DHT22;45054;52.062;10.010;2023-10-31T00:59:04;12.40;99.90
59282;DHT22;45054;52.062;10.010;2023-10-31T01:01:30;12.40;99.90
59282;DHT22;45054;52.062;10.010;2023-10-31T01:03:55;12.40;99.90
59282;DHT22;45054;52.062;10.010;2023-10-31T01:06:21;12.40;99.90
59282;DHT22;45054;52.062;10.010;2023-10-31T01:08:48;12.40;99.90
59282;DHT22;45054;52.062;10.010;2023-10-31T01:11:13;12.40;99.90
59282;DHT22;45054;52.062;10.010;2023-10-31T01:13:38;12.30;99.90
59282;DHT22;45054;52.062;10.010;2023-10-31T01:16:04;12.40;99.90
59282;DHT22;45054;52.062;10.010;2023-10-31T01:18:30;12.40;99.90
59282;DHT22;45054;52.062;10.010;2023-10-31T01:20:55;12.40;99.90
59282;DHT22;45054;52.062;10.010;2023-10-31T01:23:21;12.40;99.90
59282;DHT22;45054;52.062;10.010;2023-10-31T01:25:47;12.40;99.90
59282;DHT22;45054;52.062;10.010;2023-10-31T01:28:13;12.50;99.90
59282;DHT22;45054;52.062;10.010;2023-10-31T01:30:38;12.40;99.90
59282;DHT22;45054;52.062;10.010;2023-10-31T01:33:04;12.40;99.90
59282;DHT22;45054;52.062;10.010;2023-10-31T01:35:29;12.40;99.90
59282;DHT22;45054;52.062;10.010;2023-10-31T01:37:55;12.40;99.90
59282;DHT22;45054;52.062;10.010;2023-10-31T01:40:20;12.40;99.90
59282;DHT22;45054;52.062;10.010;2023-10-31T01:42:47;12.40;99.90
59282;DHT22;45054;52.062;10.010;2023-10-31T01:45:12;12.50;99.90
59282;DHT22;45054;52.062;10.010;2023-10-31T01:47:38;12.50;99.90
59282;DHT22;45054;52.062;10.010;2023-10-31T01:50:04;12.50;99.90
59282;DHT22;45054;52.062;10.010;2023-10-31T01:52:31;12.50;99.90
59282;DHT22;45054;52.062;10.010;2023-10-31T01:54:57;12.50;99.90
59282;DHT22;45054;52.062;10.010;2023-10-31T01:57:22;12.50;99.90
59282;DHT22;45054;52.062;10.010;2023-10-31T01:59:49;12.40;99.90
59282;DHT22;45054;52.062;10.010;2023-10-31T02:02:14;12.40;99.90
59282;DHT22;45054;52.062;10.010;2023-10-31T02:04:40;12.40;99.90
59282;DHT22;45054;52.062;10.010;2023-10-31T02:07:05;12.50;99.90
59282;DHT22;45054;52.062;10.010;2023-10-31T02:09:31;12.50;99.90
59282;DHT22;45054;52.062;10.010;2023-10-31T02:11:57;12.50;99.90
59282;DHT22;45054;52.062;10.010;2023-10-31T02:14:23;12.50;99.90
59282;DHT22;45054;52.062;10.010;2023-10-31T02:16:50;12.50;99.90
59282;DHT22;45054;52.062;10.010;2023-10-31T02:19:16;12.50;99.90
59282;DHT22;45054;52.062;10.010;2023-10-31T02:21:45;12.40;99.90
59282;DHT22;45054;52.062;10.010;2023-10-31T02:24:12;12.50;99.90
59282;DHT22;45054;52.062;10.010;2023-10-31T02:26:38;12.50;99.90
59282;DHT22;45054;52.062;10.010;2023-10-31T02:29:03;12.50;99.90
59282;DHT22;45054;52.062;10.010;2023-10-31T02:31:29;12.50;99.90
59282;DHT22;45054;52.062;10.010;2023-10-31T02:33:55;12.50;99.90
59282;DHT22;45054;52.062;10.010;2023-10-31T02:36:20;12.50;99.90
59282;DHT22;45054;52.062;10.010;2023-10-31T02:38:47;12.50;99.90
59282;DHT22;45054;52.062;10.010;2023-10-31T02:41:13;12.50;99.90
59282;DHT22;45054;52.062;10.010;2023-10-31T02:43:38;12.50;99.90
59282;DHT22;45054;52.062;10.010;2023-10-31T02:46:04;12.50;99.90
59282;DHT22;45054;52.062;10.010;2023-10-31T02:48:29;12.50;99.90
59282;DHT22;45054;52.062;10.010;2023-10-31T02:50:55;12.50;99.90
59282;DHT22;45054;52.062;10.010;2023-10-31T02:53:20;12.40;99.90
59282;DHT22;45054;52.062;10.010;2023-10-31T02:55:47;12.50;99.90
59282;DHT22;45054;52.062;10.010;2023-10-31T02:58:13;12.50;99.90
59282;DHT22;45054;52.062;10.010;2023-10-31T03:00:38;12.50;99.90
59282;DHT22;45054;52.062;10.010;2023-10-31T03:03:04;12.50;99.90
59282;DHT22;45054;52.062;10.010;2023-10-31T03:05:29;12.40;99.90
59282;DHT22;45054;52.062;10.010;2023-10-31T03:07:54;12.50;99.90
59282;DHT22;45054;52.062;10.010;2023-10-31T03:10:20;12.50;99.90
59282;DHT22;45054;52.062;10.010;2023-10-31T03:12:47;12.50;99.90
59282;DHT22;45054;52.062;10.010;2023-10-31T03:15:13;12.50;99.90
59282;DHT22;45054;52.062;10.010;2023-10-31T03:17:38;12.60;99.90
59282;DHT22;45054;52.062;10.010;2023-10-31T03:20:04;12.50;99.90
59282;DHT22;45054;52.062;10.010;2023-10-31T03:22:30;12.50;99.90
59282;DHT22;45054;52.062;10.010;2023-10-31T03:24:55;12.50;99.90
59282;DHT22;45054;52.062;10.010;2023-10-31T03:27:21;12.50;99.90
59282;DHT22;45054;52.062;10.010;2023-10-31T03:29:48;12.60;99.90
59282;DHT22;45054;52.062;10.010;2023-10-31T03:32:14;12.50;99.90
59282;DHT22;45054;52.062;10.010;2023-10-31T03:34:39;12.60;99.90
59282;DHT22;45054;52.062;10.010;2023-10-31T03:37:05;12.50;99.90
59282;DHT22;45054;52.062;10.010;2023-10-31T03:39:30;12.50;99.90
59282;DHT22;45054;52.062;10.010;2023-10-31T03:41:55;12.40;99.90
59282;DHT22;45054;52.062;10.010;2023-10-31T03:44:21;12.30;99.90
59282;DHT22;45054;52.062;10.010;2023-10-31T03:46:48;12.20;99.90
59282;DHT22;45054;52.062;10.010;2023-10-31T03:49:13;12.10;99.90
59282;DHT22;45054;52.062;10.010;2023-10-31T03:51:39;12.10;99.90
59282;DHT22;45054;52.062;10.010;2023-10-31T03:54:04;12.00;99.90
59282;DHT22;45054;52.062;10.010;2023-10-31T03:56:30;12.00;99.90
59282;DHT22;45054;52.062;10.010;2023-10-31T03:58:55;12.00;99.90
59282;DHT22;45054;52.062;10.010;2023-10-31T04:01:21;11.80;99.90
59282;DHT22;45054;52.062;10.010;2023-10-31T04:03:47;11.80;99.90
59282;DHT22;45054;52.062;10.010;2023-10-31T04:06:13;11.80;99.90
59282;DHT22;45054;52.062;10.010;2023-10-31T04:08:38;11.80;99.90
59282;DHT22;45054;52.062;10.010;2023-10-31T04:11:05;11.80;99.90
59282;DHT22;45054;52.062;10.010;2023-10-31T04:13:30;11.80;99.90
59282;DHT22;45054;52.062;10.010;2023-10-31T04:15:56;11.80;99.90
59282;DHT22;45054;52.062;10.010;2023-10-31T04:18:21;11.80;99.90
59282;DHT22;45054;52.062;10.010;2023-10-31T04:20:48;11.80;99.90
59282;DHT22;45054;52.062;10.010;2023-10-31T04:23:13;11.70;99.90
59282;DHT22;45054;52.062;10.010;2023-10-31T04:25:39;11.70;99.90
59282;DHT22;45054;52.062;10.010;2023-10-31T04:28:04;11.80;99.90
59282;DHT22;45054;52.062;10.010;2023-10-31T04:30:30;11.80;99.90
59282;DHT22;45054;52.062;10.010;2023-10-31T04:32:55;11.70;99.90
59282;DHT22;45054;52.062;10.010;2023-10-31T04:35:21;11.70;99.90
59282;DHT22;45054;52.062;10.010;2023-10-31T04:37:47;11.70;99.90
59282;DHT22;45054;52.062;10.010;2023-10-31T04:40:13;11.70;99.90
59282;DHT22;45054;52.062;10.010;2023-10-31T04:42:39;11.60;99.90
59282;DHT22;45054;52.062;10.010;2023-10-31T04:45:05;11.60;99.90
59282;DHT22;45054;52.062;10.010;2023-10-31T04:47:31;11.60;99.90
59282;DHT22;45054;52.062;10.010;2023-10-31T04:49:56;11.60;99.90
59282;DHT22;45054;52.062;10.010;2023-10-31T04:52:22;11.60;99.90
59282;DHT22;45054;52.062;10.010;2023-10-31T04:54:49;11.60;99.90
59282;DHT22;45054;52.062;10.010;2023-10-31T04:57:14;11.50;99.90
59282;DHT22;45054;52.062;10.010;2023-10-31T04:59:40;11.50;99.90
59282;DHT22;45054;52.062;10.010;2023-10-31T05:02:05;11.50;99.90
59282;DHT22;45054;52.062;10.010;2023-10-31T05:04:31;11.50;99.90
59282;DHT22;45054;52.062;10.010;2023-10-31T05:06:56;11.40;99.90
59282;DHT22;45054;52.062;10.010;2023-10-31T05:09:22;11.30;99.90
59282;DHT22;45054;52.062;10.010;2023-10-31T05:11:49;11.30;99.90
59282;DHT22;45054;52.062;10.010;2023-10-31T05:14:15;11.30;99.90
59282;DHT22;45054;52.062;10.010;2023-10-31T05:16:40;11.30;99.90
59282;DHT22;45054;52.062;10.010;2023-10-31T05:19:06;11.30;99.90
59282;DHT22;45054;52.062;10.010;2023-10-31T05:21:31;11.30;99.90
59282;DHT22;45054;52.062;10.010;2023-10-31T05:23:57;11.30;99.90
59282;DHT22;45054;52.062;10.010;2023-10-31T05:26:23;11.30;99.90
59282;DHT22;45054;52.062;10.010;2023-10-31T05:28:49;11.20;99.90
59282;DHT22;45054;52.062;10.010;2023-10-31T05:31:15;11.20;99.90
59282;DHT22;45054;52.062;10.010;2023-10-31T05:33:40;11.10;99.90
59282;DHT22;45054;52.062;10.010;2023-10-31T05:36:06;11.10;99.90
59282;DHT22;45054;52.062;10.010;2023-10-31T05:38:42;11.10;99.90
59282;DHT22;45054;52.062;10.010;2023-10-31T05:41:08;11.10;99.90
59282;DHT22;45054;52.062;10.010;2023-10-31T05:43:33;11.10;99.90
59282;DHT22;45054;52.062;10.010;2023-10-31T05:46:00;11.00;99.90
59282;DHT22;45054;52.062;10.010;2023-10-31T05:48:25;11.00;99.90
59282;DHT22;45054;52.062;10.010;2023-10-31T05:50:51;11.00;99.90
59282;DHT22;45054;52.062;10.010;2023-10-31T05:53:16;11.00;99.90
59282;DHT22;45054;52.062;10.010;2023-10-31T05:55:42;11.00;99.90
59282;DHT22;45054;52.062;10.010;2023-10-31T05:58:07;11.00;99.90
59282;DHT22;45054;52.062;10.010;2023-10-31T06:00:32;11.00;99.90
59282;DHT22;45054;52.062;10.010;2023-10-31T06:02:59;11.00;99.90
59282;DHT22;45054;52.062;10.010;2023-10-31T06:05:25;11.00;99.90
59282;DHT22;45054;52.062;10.010;2023-10-31T06:07:50;11.00;99.90
59282;DHT22;45054;52.062;10.010;2023-10-31T06:10:16;11.00;99.90
59282;DHT22;45054;52.062;10.010;2023-10-31T06:12:42;11.00;99.90
59282;DHT22;45054;52.062;10.010;2023-10-31T06:15:07;11.10;99.90
59282;DHT22;45054;52.062;10.010;2023-10-31T06:17:33;11.00;99.90
59282;DHT22;45054;52.062;10.010;2023-10-31T06:20:00;11.00;99.90
59282;DHT22;45054;52.062;10.010;2023-10-31T06:22:26;11.00;99.90
59282;DHT22;45054;52.062;10.010;2023-10-31T06:24:51;11.00;99.90
59282;DHT22;45054;52.062;10.010;2023-10-31T06:27:17;11.00;99.90
59282;DHT22;45054;52.062;10.010;2023-10-31T06:29:42;11.00;99.90
59282;DHT22;45054;52.062;10.010;2023-10-31T06:32:08;11.00;99.90
59282;DHT22;45054;52.062;10.010;2023-10-31T06:34:33;11.00;99.90
59282;DHT22;45054;52.062;10.010;2023-10-31T06:37:00;11.10;99.90
59282;DHT22;45054;52.062;10.010;2023-10-31T06:39:26;11.10;99.90
59282;DHT22;45054;52.062;10.010;2023-10-31T06:41:53;11.10;99.90
59282;DHT22;45054;52.062;10.010;2023-10-31T06:44:19;11.10;99.90
59282;DHT22;45054;52.062;10.010;2023-10-31T06:46:44;11.10;99.90
59282;DHT22;45054;52.062;10.010;2023-10-31T06:49:10;11.10;99.90
59282;DHT22;45054;52.062;10.010;2023-10-31T06:51:35;11.10;99.90
59282;DHT22;45054;52.062;10.010;2023-10-31T06:54:02;11.20;99.90
59282;DHT22;45054;52.062;10.010;2023-10-31T06:56:28;11.10;99.90
59282;DHT22;45054;52.062;10.010;2023-10-31T06:58:53;11.10;99.90
59282;DHT22;45054;52.062;10.010;2023-10-31T07:01:19;11.20;99.90
59282;DHT22;45054;52.062;10.010;2023-10-31T07:03:44;11.10;99.90
59282;DHT22;45054;52.062;10.010;2023-10-31T07:06:10;11.20;99.90
59282;DHT22;45054;52.062;10.010;2023-10-31T07:08:35;11.20;99.90
59282;DHT22;45054;52.062;10.010;2023-10-31T07:11:02;11.20;99.90
59282;DHT22;45054;52.062;10.010;2023-10-31T07:13:27;11.20;99.90
59282;DHT22;45054;52.062;10.010;2023-10-31T07:15:53;11.20;99.90
59282;DHT22;45054;52.062;10.010;2023-10-31T07:18:18;11.10;99.90
59282;DHT22;45054;52.062;10.010;2023-10-31T07:20:44;11.20;99.90
59282;DHT22;45054;52.062;10.010;2023-10-31T07:23:09;11.20;99.90
59282;DHT22;45054;52.062;10.010;2023-10-31T07:25:35;11.20;99.90
59282;DHT22;45054;52.062;10.010;2023-10-31T07:28:01;11.20;99.90
59282;DHT22;45054;52.062;10.010;2023-10-31T07:30:27;11.20;99.90
59282;DHT22;45054;52.062;10.010;2023-10-31T07:32:52;11.20;99.90
59282;DHT22;45054;52.062;10.010;2023-10-31T07:35:18;11.30;99.90
59282;DHT22;45054;52.062;10.010;2023-10-31T07:37:43;11.30;99.90
59282;DHT22;45054;52.062;10.010;2023-10-31T07:40:09;11.20;99.90
59282;DHT22;45054;52.062;10.010;2023-10-31T07:42:35;11.30;99.90
59282;DHT22;45054;52.062;10.010;2023-10-31T07:45:02;11.30;99.90
59282;DHT22;45054;52.062;10.010;2023-10-31T07:47:27;11.30;99.90
59282;DHT22;45054;52.062;10.010;2023-10-31T07:49:53;11.40;99.90
59282;DHT22;45054;52.062;10.010;2023-10-31T07:52:18;11.30;99.90
59282;DHT22;45054;52.062;10.010;2023-10-31T07:54:44;11.40;99.90
59282;DHT22;45054;52.062;10.010;2023-10-31T07:57:09;11.50;99.90
59282;DHT22;45054;52.062;10.010;2023-10-31T07:59:35;11.50;99.90
59282;DHT22;45054;52.062;10.010;2023-10-31T08:02:02;11.40;99.90
59282;DHT22;45054;52.062;10.010;2023-10-31T08:04:28;11.40;99.90
59282;DHT22;45054;52.062;10.010;2023-10-31T08:06:53;11.40;99.90
59282;DHT22;45054;52.062;10.010;2023-10-31T08:09:18;11.40;99.90
59282;DHT22;45054;52.062;10.010;2023-10-31T08:11:44;11.50;99.90
59282;DHT22;45054;52.062;10.010;2023-10-31T08:14:09;11.50;99.90
59282;DHT22;45054;52.062;10.010;2023-10-31T08:16:35;11.50;99.90
59282;DHT22;45054;52.062;10.010;2023-10-31T08:19:02;11.50;99.90
59282;DHT22;45054;52.062;10.010;2023-10-31T08:21:27;11.50;99.90
59282;DHT22;45054;52.062;10.010;2023-10-31T08:23:53;11.50;99.90
59282;DHT22;45054;52.062;10.010;2023-10-31T08:26:18;11.50;99.90
59282;DHT22;45054;52.062;10.010;2023-10-31T08:28:43;11.50;99.90
59282;DHT22;45054;52.062;10.010;2023-10-31T08:31:09;11.50;99.90
59282;DHT22;45054;52.062;10.010;2023-10-31T08:33:34;11.40;99.90
59282;DHT22;45054;52.062;10.010;2023-10-31T08:36:01;11.40;99.90
59282;DHT22;45054;52.062;10.010;2023-10-31T08:38:27;11.40;99.90
59282;DHT22;45054;52.062;10.010;2023-10-31T08:40:52;11.30;99.90
59282;DHT22;45054;52.062;10.010;2023-10-31T08:43:18;11.30;99.90
59282;DHT22;45054;52.062;10.010;2023-10-31T08:45:43;11.30;99.90
59282;DHT22;45054;52.062;10.010;2023-10-31T08:48:09;11.30;99.90
59282;DHT22;45054;52.062;10.010;2023-10-31T08:50:34;11.30;99.90
59282;DHT22;45054;52.062;10.010;2023-10-31T08:53:01;11.20;99.90
59282;DHT22;45054;52.062;10.010;2023-10-31T08:55:27;11.20;99.90
59282;DHT22;45054;52.062;10.010;2023-10-31T08:57:52;11.30;99.90
59282;DHT22;45054;52.062;10.010;2023-10-31T09:00:17;11.30;99.90
59282;DHT22;45054;52.062;10.010;2023-10-31T09:02:43;11.30;99.90
59282;DHT22;45054;52.062;10.010;2023-10-31T09:05:08;11.20;99.90
59282;DHT22;45054;52.062;10.010;2023-10-31T09:07:34;11.20;99.90
59282;DHT22;45054;52.062;10.010;2023-10-31T09:10:01;11.20;99.90
59282;DHT22;45054;52.062;10.010;2023-10-31T09:12:26;11.30;99.90
59282;DHT22;45054;52.062;10.010;2023-10-31T09:14:52;11.20;99.90
59282;DHT22;45054;52.062;10.010;2023-10-31T09:17:17;11.30;99.90
59282;DHT22;45054;52.062;10.010;2023-10-31T09:19:43;11.30;99.90
59282;DHT22;45054;52.062;10.010;2023-10-31T09:22:08;11.30;99.90
59282;DHT22;45054;52.062;10.010;2023-10-31T09:24:33;11.20;99.90
59282;DHT22;45054;52.062;10.010;2023-10-31T09:27:00;11.30;99.90
59282;DHT22;45054;52.062;10.010;2023-10-31T09:29:26;11.30;99.90
59282;DHT22;45054;52.062;10.010;2023-10-31T09:31:51;11.30;99.90
59282;DHT22;45054;52.062;10.010;2023-10-31T09:34:17;11.40;99.90
59282;DHT22;45054;52.062;10.010;2023-10-31T09:36:42;11.40;99.90
59282;DHT22;45054;52.062;10.010;2023-10-31T09:39:08;11.60;99.90
59282;DHT22;45054;52.062;10.010;2023-10-31T09:41:33;11.70;99.90
59282;DHT22;45054;52.062;10.010;2023-10-31T09:44:00;11.70;99.90
59282;DHT22;45054;52.062;10.010;2023-10-31T09:46:26;11.60;99.90
59282;DHT22;45054;52.062;10.010;2023-10-31T09:48:52;11.70;99.90
59282;DHT22;45054;52.062;10.010;2023-10-31T09:51:17;11.70;99.90
59282;DHT22;45054;52.062;10.010;2023-10-31T09:53:44;11.70;99.90
59282;DHT22;45054;52.062;10.010;2023-10-31T09:56:09;11.70;99.90
59282;DHT22;45054;52.062;10.010;2023-10-31T09:58:35;11.80;99.90
59282;DHT22;45054;52.062;10.010;2023-10-31T10:01:02;11.80;99.90
59282;DHT22;45054;52.062;10.010;2023-10-31T10:03:28;11.70;99.90
59282;DHT22;45054;52.062;10.010;2023-10-31T10:05:54;11.70;99.90
59282;DHT22;45054;52.062;10.010;2023-10-31T10:08:19;11.70;99.90
59282;DHT22;45054;52.062;10.010;2023-10-31T10:10:45;11.70;99.90
59282;DHT22;45054;52.062;10.010;2023-10-31T10:13:10;11.70;99.90
59282;DHT22;45054;52.062;10.010;2023-10-31T10:15:45;11.80;99.90
59282;DHT22;45054;52.062;10.010;2023-10-31T10:18:12;11.80;99.90
59282;DHT22;45054;52.062;10.010;2023-10-31T10:20:54;11.70;99.90
59282;DHT22;45054;52.062;10.010;2023-10-31T10:23:19;11.80;99.90
59282;DHT22;45054;52.062;10.010;2023-10-31T10:25:46;11.80;99.90
59282;DHT22;45054;52.062;10.010;2023-10-31T10:28:13;11.70;99.90
59282;DHT22;45054;52.062;10.010;2023-10-31T10:30:38;11.80;99.90
59282;DHT22;45054;52.062;10.010;2023-10-31T10:33:04;11.80;99.90
59282;DHT22;45054;52.062;10.010;2023-10-31T10:35:31;11.80;99.90
59282;DHT22;45054;52.062;10.010;2023-10-31T10:37:56;11.80;99.90
59282;DHT22;45054;52.062;10.010;2023-10-31T10:40:22;11.70;99.90
59282;DHT22;45054;52.062;10.010;2023-10-31T10:42:48;11.60;99.90
59282;DHT22;45054;52.062;10.010;2023-10-31T10:45:15;11.50;99.90
59282;DHT22;45054;52.062;10.010;2023-10-31T10:47:41;11.50;99.90
59282;DHT22;45054;52.062;10.010;2023-10-31T10:50:09;11.40;99.90
59282;DHT22;45054;52.062;10.010;2023-10-31T10:52:38;11.40;99.90
59282;DHT22;45054;52.062;10.010;2023-10-31T10:55:04;11.40;99.90
59282;DHT22;45054;52.062;10.010;2023-10-31T10:57:31;11.50;99.90
59282;DHT22;45054;52.062;10.010;2023-10-31T10:59:58;11.60;99.90
59282;DHT22;45054;52.062;10.010;2023-10-31T11:02:26;11.60;99.90
59282;DHT22;45054;52.062;10.010;2023-10-31T11:04:52;11.70;99.90
59282;DHT22;45054;52.062;10.010;2023-10-31T11:07:18;11.60;99.90
59282;DHT22;45054;52.062;10.010;2023-10-31T11:09:46;11.70;99.90
59282;DHT22;45054;52.062;10.010;2023-10-31T11:12:12;11.70;99.90
59282;DHT22;45054;52.062;10.010;2023-10-31T11:14:38;11.80;99.90
59282;DHT22;45054;52.062;10.010;2023-10-31T11:17:06;11.90;99.90
59282;DHT22;45054;52.062;10.010;2023-10-31T11:19:35;12.00;99.90
59282;DHT22;45054;52.062;10.010;2023-10-31T11:22:01;12.00;99.90
59282;DHT22;45054;52.062;10.010;2023-10-31T11:24:27;12.10;99.90
59282;DHT22;45054;52.062;10.010;2023-10-31T11:26:57;12.10;99.90
59282;DHT22;45054;52.062;10.010;2023-10-31T11:29:23;12.10;99.90
59282;DHT22;45054;52.062;10.010;2023-10-31T11:31:49;12.00;99.90
59282;DHT22;45054;52.062;10.010;2023-10-31T11:34:15;12.00;99.90
59282;DHT22;45054;52.062;10.010;2023-10-31T11:36:41;12.00;99.90
59282;DHT22;45054;52.062;10.010;2023-10-31T11:39:09;12.00;99.90
59282;DHT22;45054;52.062;10.010;2023-10-31T11:41:35;12.00;99.90
59282;DHT22;45054;52.062;10.010;2023-10-31T11:44:04;12.00;99.90
59282;DHT22;45054;52.062;10.010;2023-10-31T11:46:29;12.00;99.90
59282;DHT22;45054;52.062;10.010;2023-10-31T11:48:55;11.90;99.90
59282;DHT22;45054;52.062;10.010;2023-10-31T11:51:20;11.90;99.90
59282;DHT22;45054;52.062;10.010;2023-10-31T11:53:46;12.00;99.90
59282;DHT22;45054;52.062;10.010;2023-10-31T11:56:12;11.80;99.90
59282;DHT22;45054;52.062;10.010;2023-10-31T11:58:38;11.70;99.90
59282;DHT22;45054;52.062;10.010;2023-10-31T12:01:06;11.70;99.90
59282;DHT22;45054;52.062;10.010;2023-10-31T12:03:36;11.70;99.90
59282;DHT22;45054;52.062;10.010;2023-10-31T12:06:01;11.70;99.90
59282;DHT22;45054;52.062;10.010;2023-10-31T12:08:27;11.70;99.90
59282;DHT22;45054;52.062;10.010;2023-10-31T12:10:53;11.70;99.90
59282;DHT22;45054;52.062;10.010;2023-10-31T12:13:18;11.70;99.90
59282;DHT22;45054;52.062;10.010;2023-10-31T12:15:50;11.70;99.90
59282;DHT22;45054;52.062;10.010;2023-10-31T12:18:18;11.70;99.90
59282;DHT22;45054;52.062;10.010;2023-10-31T12:20:46;11.70;99.90
59282;DHT22;45054;52.062;10.010;2023-10-31T12:23:12;11.70;99.90
59282;DHT22;45054;52.062;10.010;2023-10-31T12:25:45;11.70;99.90
59282;DHT22;45054;52.062;10.010;2023-10-31T12:28:10;11.70;99.90
59282;DHT22;45054;52.062;10.010;2023-10-31T12:30:43;11.70;99.90
59282;DHT22;45054;52.062;10.010;2023-10-31T12:33:09;11.70;99.90
59282;DHT22;45054;52.062;10.010;2023-10-31T12:35:36;11.70;99.90
59282;DHT22;45054;52.062;10.010;2023-10-31T12:38:01;11.70;99.90
59282;DHT22;45054;52.062;10.010;2023-10-31T12:40:27;11.70;99.90
59282;DHT22;45054;52.062;10.010;2023-10-31T12:42:52;11.70;99.90
59282;DHT22;45054;52.062;10.010;2023-10-31T12:45:18;11.70;99.90
59282;DHT22;45054;52.062;10.010;2023-10-31T12:47:43;11.70;99.90
59282;DHT22;45054;52.062;10.010;2023-10-31T12:50:11;11.70;99.90
59282;DHT22;45054;52.062;10.010;2023-10-31T12:52:48;11.80;99.90
59282;DHT22;45054;52.062;10.010;2023-10-31T12:55:14;11.80;99.90
59282;DHT22;45054;52.062;10.010;2023-10-31T12:57:40;11.80;99.90
59282;DHT22;45054;52.062;10.010;2023-10-31T13:00:08;11.80;99.90
59282;DHT22;45054;52.062;10.010;2023-10-31T13:02:34;11.80;99.90
59282;DHT22;45054;52.062;10.010;2023-10-31T13:05:07;11.80;99.90
59282;DHT22;45054;52.062;10.010;2023-10-31T13:07:32;11.90;99.90
59282;DHT22;45054;52.062;10.010;2023-10-31T13:09:59;12.00;99.90
59282;DHT22;45054;52.062;10.010;2023-10-31T13:12:25;12.10;99.90
59282;DHT22;45054;52.062;10.010;2023-10-31T13:14:50;12.20;99.90
59282;DHT22;45054;52.062;10.010;2023-10-31T13:17:16;12.40;99.90
59282;DHT22;45054;52.062;10.010;2023-10-31T13:19:41;12.40;99.90
59282;DHT22;45054;52.062;10.010;2023-10-31T13:22:07;12.50;99.90
59282;DHT22;45054;52.062;10.010;2023-10-31T13:24:32;12.50;99.90
59282;DHT22;45054;52.062;10.010;2023-10-31T13:26:59;12.40;99.90
59282;DHT22;45054;52.062;10.010;2023-10-31T13:29:24;12.40;99.90
59282;DHT22;45054;52.062;10.010;2023-10-31T13:31:50;12.50;99.90
59282;DHT22;45054;52.062;10.010;2023-10-31T13:34:15;12.50;99.90
59282;DHT22;45054;52.062;10.010;2023-10-31T13:36:41;12.50;99.90
59282;DHT22;45054;52.062;10.010;2023-10-31T13:39:06;12.50;99.90
59282;DHT22;45054;52.062;10.010;2023-10-31T13:41:32;12.50;99.90
59282;DHT22;45054;52.062;10.010;2023-10-31T13:43:58;12.30;99.90
59282;DHT22;45054;52.062;10.010;2023-10-31T13:46:24;12.40;99.90
59282;DHT22;45054;52.062;10.010;2023-10-31T13:48:49;12.40;99.90
59282;DHT22;45054;52.062;10.010;2023-10-31T13:51:15;12.40;99.90
59282;DHT22;45054;52.062;10.010;2023-10-31T13:53:40;12.50;99.90
59282;DHT22;45054;52.062;10.010;2023-10-31T13:56:06;12.30;99.90
59282;DHT22;45054;52.062;10.010;2023-10-31T13:58:32;12.30;99.90
59282;DHT22;45054;52.062;10.010;2023-10-31T14:00:59;12.30;99.90
59282;DHT22;45054;52.062;10.010;2023-10-31T14:03:24;12.40;99.90
59282;DHT22;45054;52.062;10.010;2023-10-31T14:05:50;12.60;99.90
59282;DHT22;45054;52.062;10.010;2023-10-31T14:08:16;12.70;99.90
59282;DHT22;45054;52.062;10.010;2023-10-31T14:10:41;12.80;99.90
59282;DHT22;45054;52.062;10.010;2023-10-31T14:13:07;13.00;99.90
59282;DHT22;45054;52.062;10.010;2023-10-31T14:15:32;13.00;99.90
59282;DHT22;45054;52.062;10.010;2023-10-31T14:17:59;13.20;99.90
59282;DHT22;45054;52.062;10.010;2023-10-31T14:20:25;13.40;99.90
59282;DHT22;45054;52.062;10.010;2023-10-31T14:22:50;13.70;99.90
59282;DHT22;45054;52.062;10.010;2023-10-31T14:25:16;13.80;99.90
59282;DHT22;45054;52.062;10.010;2023-10-31T14:27:41;13.90;99.90
59282;DHT22;45054;52.062;10.010;2023-10-31T14:30:07;13.90;99.90
59282;DHT22;45054;52.062;10.010;2023-10-31T14:32:33;13.70;99.90
59282;DHT22;45054;52.062;10.010;2023-10-31T14:35:00;13.60;99.90
59282;DHT22;45054;52.062;10.010;2023-10-31T14:37:25;13.60;99.90
59282;DHT22;45054;52.062;10.010;2023-10-31T14:39:51;13.50;99.90
59282;DHT22;45054;52.062;10.010;2023-10-31T14:42:16;13.40;99.90
59282;DHT22;45054;52.062;10.010;2023-10-31T14:44:42;13.30;99.90
59282;DHT22;45054;52.062;10.010;2023-10-31T14:47:07;13.10;99.90
59282;DHT22;45054;52.062;10.010;2023-10-31T14:49:32;12.80;99.90
59282;DHT22;45054;52.062;10.010;2023-10-31T14:51:59;12.70;99.90
59282;DHT22;45054;52.062;10.010;2023-10-31T14:54:25;12.60;99.90
59282;DHT22;45054;52.062;10.010;2023-10-31T14:56:50;12.60;99.90
59282;DHT22;45054;52.062;10.010;2023-10-31T14:59:16;12.60;99.90
59282;DHT22;45054;52.062;10.010;2023-10-31T15:01:41;12.70;99.90
59282;DHT22;45054;52.062;10.010;2023-10-31T15:04:07;12.60;99.90
59282;DHT22;45054;52.062;10.010;2023-10-31T15:06:32;12.50;99.90